Auriesville, New York
Current Conditions -  °F | °C
As of 4:35 AM on Thursday 27 Nov 2014 (Local Time) from KNY0 Reporting Station
Overcast Overcast  
Wind Chill: -3°   Ceiling: 4900
Heat Index: -3°   Visibility: 5mi
Dew Point: -4°   Wind: 3mph
Humidity: 94%   Direction: 250°WSW
Pressure: 29.91"   Gusts: NA
Location:  42.93°N, 74.32°W
Report Text: KNY0 270935Z AUTO 25003KT 5SM SCT019 OVC049 M03/M04 A2991 RMK AO2 T10321040
Loading
Personal Weather Stations






























Interactive Weather Map New forecast layout! Learn more

10-Day Weather Forecast

Advertisements
Track Severe Weather on mobile